VOCC/COK METAR and TAF weather

Enter ICAO airport designator
Station Type Date Time Source
VOCC METAR 2022/04/06 04:30 UTC NOAA

VOCC 060430Z VRB02KT 5000 HZ SCT016 SCT080 30/24 Q1014 NOSIG


Station Type Date Time Source
VOCC Decoded METAR 2022/04/06 04:30 UTC NOAA

Cochin / Willingdon, India (VOCC) 09-57N 076-16E 3M
Apr 06, 2022 - 12:30 AM EDT / 2022.04.06 0430 UTC
Wind: Variable at 2 MPH (2 KT):0
Visibility: 3 mile(s):0
Sky conditions: partly cloudy
Weather: haze
Temperature: 86 F (30 C)
Heat index: 95.0 F (35.0 C):1
Dew Point: 75 F (24 C)
Relative Humidity: 70%
Pressure (altimeter): 29.94 in. Hg (1014 hPa)
ob: VOCC 060430Z VRB02KT 5000 HZ SCT016 SCT080 30/24 Q1014 NOSIG
cycle: 4

Station Type Date Time Source
VOCC TAF 2021/12/02 00:00 UTC NOAA

TAF VOCC 012300Z 0200/0306 09005KT 2000 DZ BR SCT012 FEW022TCU BKN080
TEMPO 0200/0202 23010KT 1500 TSRA RA FEW008 SCT012 FEW025CB OVC080
BECMG 0204/0206 5000 HZ
BECMG 0206/0208 29010KT 6000 FEW014 SCT080
TEMPO 0210/0215 15010G20KT 1500 TSRA RA FEW008 SCT012 FEW025CB BKN080
BECMG 0215/0216 VRB02KT 4500 BR SCT014 BKN080
BECMG 0302/0304 12006KT 3500 BR FEW014 SCT080

Example: see airport list